Time;durP1;ratioP1;P1;durP2;ratioP2;P2;SDS_P1;SDS_P2;PMS_P1;PMS_P2;Temp;Humidity;BMP_temperature;BMP_pressure;BME280_temperature;BME280_humidity;BME280_pressure;Samples;Min_cycle;Max_cycle;Signal;HPM_P1;HPM_P2
2021/12/18 00:00:06;;;;;;;;;30.00;27.80;;;;;9.73;64.36;103020.72;2064154;28;47618;-58
2021/12/18 00:01:07;;;;;;;;;35.80;29.20;;;;;9.72;64.31;103027.78;2063373;28;47817;-56
2021/12/18 00:02:09;;;;;;;;;29.75;27.50;;;;;9.72;64.48;103019.81;2059784;28;46600;-57
2021/12/18 00:03:10;;;;;;;;;30.40;26.60;;;;;9.71;64.43;103019.78;2060356;28;48145;-55
2021/12/18 00:04:10;;;;;;;;;32.75;28.25;;;;;9.71;64.59;103018.03;2063826;28;48108;-56
2021/12/18 00:05:11;;;;;;;;;33.00;28.50;;;;;9.71;64.52;103007.41;2064100;28;48208;-56
2021/12/18 00:06:11;;;;;;;;;28.00;27.50;;;;;9.70;64.33;103005.63;2063366;28;47327;-57
2021/12/18 00:07:12;;;;;;;;;33.75;33.00;;;;;9.70;64.55;103004.75;2060870;28;48294;-59
2021/12/18 00:08:13;;;;;;;;;32.50;30.75;;;;;9.70;64.34;103010.06;2061348;28;46965;-56
2021/12/18 00:09:13;;;;;;;;;28.50;28.50;;;;;9.71;64.34;103006.53;2061310;28;47981;-56
2021/12/18 00:10:14;;;;;;;;;30.50;29.50;;;;;9.70;64.09;103002.09;2063628;28;48085;-56
2021/12/18 00:11:15;;;;;;;;;26.20;26.00;;;;;9.71;64.52;103009.19;2063881;28;47464;-58
2021/12/18 00:12:16;;;;;;;;;32.40;27.20;;;;;9.69;64.19;103009.16;2059434;28;48618;-57
2021/12/18 00:13:16;;;;;;;;;30.50;30.25;;;;;9.69;64.40;103009.16;2062434;28;48745;-57
2021/12/18 00:14:17;;;;;;;;;28.75;25.50;;;;;9.69;64.26;103011.81;2061414;28;48266;-57
2021/12/18 00:15:20;;;;;;;;;32.50;31.25;;;;;9.68;64.23;103009.13;2063844;28;47425;-56
2021/12/18 00:16:20;;;;;;;;;28.80;28.40;;;;;9.68;64.40;103010.03;2062894;28;48103;-58
2021/12/18 00:17:21;;;;;;;;;30.25;27.25;;;;;9.67;64.34;103010.91;2058902;28;48263;-58
2021/12/18 00:18:21;;;;;;;;;30.25;26.50;;;;;9.67;64.15;103010.00;2062288;28;48160;-59
2021/12/18 00:19:25;;;;;;;;;30.25;28.00;;;;;9.67;64.21;103005.59;2061080;28;46212;-56
2021/12/18 00:20:27;;;;;;;;;27.40;26.00;;;;;9.66;64.08;103011.75;2060991;28;46053;-58
2021/12/18 00:21:27;;;;;;;;;24.40;24.20;;;;;9.65;64.13;103009.06;2061866;28;47453;-59
2021/12/18 00:22:28;;;;;;;;;30.50;28.00;;;;;9.64;64.08;103004.63;2059615;28;47202;-56
2021/12/18 00:23:29;;;;;;;;;27.75;25.75;;;;;9.62;63.99;103006.34;2063223;28;47200;-58
2021/12/18 00:24:30;;;;;;;;;24.20;23.40;;;;;9.61;64.21;103002.81;2062071;28;47660;-58
2021/12/18 00:25:31;;;;;;;;;34.50;31.00;;;;;9.60;64.19;103002.78;2063281;28;48040;-56
2021/12/18 00:26:32;;;;;;;;;28.20;26.80;;;;;9.61;64.18;103007.22;2061767;28;47589;-58
2021/12/18 00:27:32;;;;;;;;;25.40;25.40;;;;;9.59;64.32;103001.88;2062689;28;48081;-57
2021/12/18 00:28:33;;;;;;;;;33.00;29.00;;;;;9.59;64.00;103004.53;2055344;28;47450;-58
2021/12/18 00:29:33;;;;;;;;;30.25;28.75;;;;;9.58;64.17;103013.34;2063981;28;47966;-56
2021/12/18 00:30:35;;;;;;;;;27.75;27.75;;;;;9.58;64.19;103004.53;2063787;28;46490;-54
2021/12/18 00:31:35;;;;;;;;;29.20;27.80;;;;;9.56;64.37;103004.50;2061370;28;48431;-57
2021/12/18 00:32:36;;;;;;;;;30.25;29.00;;;;;9.55;64.27;103000.06;2058890;28;47262;-59
2021/12/18 00:33:36;;;;;;;;;24.50;24.50;;;;;9.55;64.32;103001.81;2062242;28;47145;-55
2021/12/18 00:34:39;;;;;;;;;30.00;27.50;;;;;9.55;64.12;103001.81;2063926;28;48346;-56
2021/12/18 00:35:39;;;;;;;;;26.80;24.80;;;;;9.54;64.14;103003.56;2063365;28;48159;-56
2021/12/18 00:36:40;;;;;;;;;27.50;26.25;;;;;9.54;64.18;103005.34;2055604;28;47675;-57
2021/12/18 00:37:41;;;;;;;;;27.00;26.20;;;;;9.52;63.96;103002.63;2050092;28;46460;-57
2021/12/18 00:38:42;;;;;;;;;30.00;27.20;;;;;9.53;64.23;103003.50;2063813;28;47054;-54
2021/12/18 00:39:53;;;;;;;;;26.50;25.50;;;;;9.53;64.05;103000.88;2062506;28;47981;-56
2021/12/18 00:42:47;;;;;;;;;26.00;24.80;;;;;9.51;63.93;103008.78;2023604;28;48621;-57
2021/12/18 00:44:03;;;;;;;;;27.00;25.80;;;;;9.50;63.99;103006.13;2058778;28;47210;-57
2021/12/18 00:45:08;;;;;;;;;27.40;27.00;;;;;9.48;64.02;102998.13;2054676;28;47093;-57
2021/12/18 00:46:08;;;;;;;;;26.00;24.80;;;;;9.48;64.16;102997.25;2055817;28;47449;-55
2021/12/18 00:47:09;;;;;;;;;25.00;24.50;;;;;9.47;64.00;102990.16;2060250;28;48139;-56
2021/12/18 00:48:09;;;;;;;;;22.50;22.50;;;;;9.46;64.17;102988.38;2061075;28;47398;-57
2021/12/18 00:49:16;;;;;;;;;29.25;24.25;;;;;9.46;63.93;102991.03;2055180;28;47080;-57
2021/12/18 00:50:21;;;;;;;;;25.80;25.60;;;;;9.47;64.28;102995.47;2055710;28;47305;-66
2021/12/18 00:51:22;;;;;;;;;27.00;24.40;;;;;9.46;64.14;102991.91;2063705;28;48276;-57
2021/12/18 00:52:23;;;;;;;;;28.00;26.00;;;;;9.46;63.99;102985.72;2061855;28;47045;-58
2021/12/18 00:53:23;;;;;;;;;25.00;24.20;;;;;9.45;63.99;102984.84;2060792;28;48128;-59
2021/12/18 00:54:24;;;;;;;;;24.00;24.00;;;;;9.47;63.99;102984.88;2063265;28;48043;-57
2021/12/18 00:55:25;;;;;;;;;21.20;20.80;;;;;9.45;64.19;102990.13;2063562;28;47510;-56
2021/12/18 00:56:25;;;;;;;;;23.25;20.50;;;;;9.44;64.01;102985.69;2062327;28;46671;-58
2021/12/18 00:57:26;;;;;;;;;23.75;22.50;;;;;9.43;63.95;102983.91;2061618;28;47934;-55
2021/12/18 00:58:28;;;;;;;;;30.75;29.00;;;;;9.43;64.16;102992.75;2063624;28;46360;-54
2021/12/18 00:59:28;;;;;;;;;23.40;23.20;;;;;9.44;63.98;102988.34;2054468;28;47052;-57
2021/12/18 01:00:29;;;;;;;;;23.00;22.00;;;;;9.42;63.78;102984.78;2054737;28;47087;-57
2021/12/18 01:01:32;;;;;;;;;24.50;23.50;;;;;9.41;63.81;102989.19;2063398;28;47068;-59
2021/12/18 01:02:32;;;;;;;;;29.80;26.00;;;;;9.40;64.03;102991.78;2060285;28;46235;-58
2021/12/18 01:03:34;;;;;;;;;24.50;23.50;;;;;9.39;63.98;102987.34;2063653;28;47288;-56
2021/12/18 01:04:35;;;;;;;;;23.00;22.40;;;;;9.37;63.78;102994.38;2060107;28;47214;-57
2021/12/18 01:05:35;;;;;;;;;27.75;26.00;;;;;9.37;63.83;102991.72;2063583;28;47490;-59
2021/12/18 01:06:36;;;;;;;;;32.00;23.50;;;;;9.34;64.04;102992.56;2062843;28;48234;-57
2021/12/18 01:07:37;;;;;;;;;24.00;22.00;;;;;9.35;63.99;102991.72;2060985;28;45454;-59
2021/12/18 01:08:38;;;;;;;;;28.40;24.20;;;;;9.35;63.94;102990.81;2063562;28;48439;-56
2021/12/18 01:12:00;;;;;;;;;24.00;22.00;;;;;9.35;64.04;102990.81;2059545;28;47114;-56
2021/12/18 01:13:03;;;;;;;;;24.00;21.25;;;;;9.33;63.96;102993.44;2063378;28;47716;-58
2021/12/18 01:15:36;;;;;;;;;26.20;26.20;;;;;9.33;63.92;103003.16;2063878;28;48483;-56
2021/12/18 01:23:34;;;;;;;;;24.20;22.60;;;;;9.26;63.95;103006.53;2029972;28;47516;-57
2021/12/18 01:24:35;;;;;;;;;30.60;26.60;;;;;9.25;63.76;103007.38;2030686;28;48423;-56
2021/12/18 01:25:35;;;;;;;;;24.50;23.00;;;;;9.25;63.84;103016.22;2030182;28;47258;-57
2021/12/18 01:26:36;;;;;;;;;26.25;24.50;;;;;9.23;63.99;103004.72;2037745;28;47234;-56
2021/12/18 01:27:36;;;;;;;;;24.75;23.25;;;;;9.23;63.88;103007.34;2053058;28;48429;-56
2021/12/18 01:28:37;;;;;;;;;30.25;25.00;;;;;9.23;63.93;103003.81;2062846;28;45388;-60
2021/12/18 01:29:38;;;;;;;;;21.75;21.50;;;;;9.22;63.82;103002.03;2063356;28;48192;-58
2021/12/18 01:30:38;;;;;;;;;23.20;22.80;;;;;9.22;63.84;102994.09;2063368;28;47675;-56
2021/12/18 01:31:39;;;;;;;;;23.50;21.50;;;;;9.22;63.76;102996.72;2062049;28;46099;-56
2021/12/18 01:32:40;;;;;;;;;27.25;27.25;;;;;9.22;64.13;102994.97;2060961;28;46626;-57
2021/12/18 01:33:40;;;;;;;;;24.80;22.80;;;;;9.21;63.69;103006.44;2062833;28;48341;-57
2021/12/18 01:34:41;;;;;;;;;24.25;23.00;;;;;9.19;63.86;102999.31;2063124;28;48140;-56
2021/12/18 01:35:43;;;;;;;;;27.75;27.00;;;;;9.19;63.79;103005.53;2063109;28;47356;-56
2021/12/18 01:36:43;;;;;;;;;26.00;23.40;;;;;9.18;63.96;103003.72;2062194;28;47230;-56
2021/12/18 01:37:45;;;;;;;;;24.00;23.75;;;;;9.18;63.85;103014.34;2058470;28;45439;-58
2021/12/18 01:38:45;;;;;;;;;25.00;22.80;;;;;9.18;63.89;103010.78;2063555;28;47394;-56
2021/12/18 01:39:46;;;;;;;;;21.50;21.50;;;;;9.18;64.00;103009.03;2063035;28;46781;-65
2021/12/18 01:40:47;;;;;;;;;25.75;23.50;;;;;9.18;63.73;103009.03;2063379;28;47229;-55
2021/12/18 01:44:35;;;;;;;;;28.40;27.60;;;;;9.17;63.79;103011.66;2062155;28;47946;-56
2021/12/18 01:45:37;;;;;;;;;29.80;25.80;;;;;9.14;63.90;103013.34;2063542;28;47569;-56
2021/12/18 01:47:00;;;;;;;;;23.60;22.40;;;;;9.14;64.02;103013.34;2054050;28;46127;-57
2021/12/18 01:52:58;;;;;;;;;22.25;22.25;;;;;9.11;63.56;103015.06;2060205;28;47740;-57
2021/12/18 01:53:59;;;;;;;;;24.00;24.00;;;;;9.11;63.64;103012.41;2062460;28;47684;-56
2021/12/18 01:55:00;;;;;;;;;28.20;25.40;;;;;9.11;63.66;103015.94;2062320;28;47396;-56
2021/12/18 01:56:01;;;;;;;;;24.25;24.00;;;;;9.09;63.69;103012.38;2063126;28;47803;-58
2021/12/18 01:57:02;;;;;;;;;27.00;24.00;;;;;9.10;63.68;103006.22;2061652;28;45679;-57
2021/12/18 01:58:05;;;;;;;;;24.50;24.50;;;;;9.09;63.86;103011.47;2062780;28;47327;-52
2021/12/18 01:59:08;;;;;;;;;22.20;22.20;;;;;9.09;63.80;103014.13;2063328;28;47650;-55
2021/12/18 02:00:17;;;;;;;;;23.40;23.20;;;;;9.08;63.77;103013.22;2061258;28;48286;-57
2021/12/18 02:01:18;;;;;;;;;24.80;24.20;;;;;9.10;64.16;103013.25;2063523;28;48216;-56
2021/12/18 02:02:20;;;;;;;;;22.00;22.00;;;;;9.07;63.71;103014.09;2059711;28;48284;-56
2021/12/18 02:03:20;;;;;;;;;23.00;21.00;;;;;9.07;63.46;103011.44;2061090;28;46730;-56
2021/12/18 02:04:21;;;;;;;;;24.25;23.00;;;;;9.07;63.68;103008.81;2062792;28;47160;-56
2021/12/18 02:05:21;;;;;;;;;24.00;23.25;;;;;9.07;63.52;103006.16;2065018;28;48255;-56
2021/12/18 02:06:23;;;;;;;;;22.75;20.75;;;;;9.07;63.67;103003.50;2064855;28;48014;-56
2021/12/18 02:07:24;;;;;;;;;20.80;19.80;;;;;9.07;63.55;103005.25;2061489;28;47531;-56
2021/12/18 02:08:27;;;;;;;;;23.00;19.25;;;;;9.06;63.70;103000.84;2064728;28;47232;-59
2021/12/18 02:09:40;;;;;;;;;21.80;19.80;;;;;9.06;63.52;103006.13;2060930;28;47426;-57
2021/12/18 02:10:47;;;;;;;;;25.20;25.20;;;;;9.06;63.61;103006.13;2064088;28;47466;-56
2021/12/18 02:11:47;;;;;;;;;22.60;20.80;;;;;9.06;63.45;103006.13;2056910;28;47334;-57
2021/12/18 02:20:56;;;;;;;;;25.00;21.80;;;;;9.01;63.69;103023.66;2056713;28;47468;-55
2021/12/18 02:21:32;;;;;;;;;24.80;24.00;;;;;8.99;63.60;103015.69;2053957;28;46399;-60
2021/12/18 02:22:33;;;;;;;;;27.60;21.80;;;;;9.00;63.66;103020.13;2062377;28;49724;-55
2021/12/18 02:23:36;;;;;;;;;25.25;22.25;;;;;9.00;63.68;103020.13;2063399;28;46800;-57
2021/12/18 02:24:37;;;;;;;;;26.60;25.40;;;;;8.99;63.63;103020.97;2063686;28;45416;-55
2021/12/18 02:25:38;;;;;;;;;30.25;25.75;;;;;8.99;63.72;103023.63;2063633;28;47172;-57
2021/12/18 02:26:38;;;;;;;;;26.40;23.00;;;;;8.99;63.73;103022.72;2063830;28;47992;-54
2021/12/18 02:27:38;;;;;;;;;29.25;27.25;;;;;8.99;63.72;103010.38;2063047;28;45631;-56
2021/12/18 02:28:43;;;;;;;;;20.50;19.50;;;;;8.99;63.54;103010.38;2062766;28;48146;-57
2021/12/18 02:29:44;;;;;;;;;24.20;23.40;;;;;8.98;63.39;103015.66;2056544;28;47423;-57
2021/12/18 02:30:48;;;;;;;;;20.40;20.40;;;;;8.98;63.58;103018.28;2060625;28;47744;-55
2021/12/18 02:31:48;;;;;;;;;26.00;22.40;;;;;8.97;63.50;103011.22;2063758;28;47495;-56
2021/12/18 02:32:50;;;;;;;;;24.25;22.75;;;;;8.97;63.56;103004.16;2060729;28;45444;-57
2021/12/18 02:33:51;;;;;;;;;25.60;23.40;;;;;8.97;63.66;103008.56;2062382;28;48521;-56
2021/12/18 02:34:56;;;;;;;;;27.50;25.25;;;;;8.96;63.66;103006.78;2064664;28;48196;-58
2021/12/18 02:35:59;;;;;;;;;26.40;24.60;;;;;8.96;63.67;103010.31;2056665;28;47452;-57
2021/12/18 02:37:05;;;;;;;;;23.40;22.40;;;;;8.96;63.60;103010.31;2062479;28;47283;-55
2021/12/18 02:38:18;;;;;;;;;25.00;24.60;;;;;8.97;63.50;103017.41;2063162;28;47458;-58
2021/12/18 02:42:07;;;;;;;;;27.20;25.20;;;;;8.96;63.64;103004.13;2056983;28;48675;-57
2021/12/18 02:43:08;;;;;;;;;23.80;21.80;;;;;8.95;63.68;102994.41;2058826;28;46289;-56
2021/12/18 02:44:11;;;;;;;;;24.75;24.00;;;;;8.94;63.43;103000.56;2064129;28;48270;-57
2021/12/18 02:45:12;;;;;;;;;30.20;28.80;;;;;8.94;63.30;103008.50;2064745;28;48024;-56
2021/12/18 02:46:17;;;;;;;;;24.80;22.00;;;;;8.93;63.38;102998.78;2064398;28;48422;-57
2021/12/18 02:47:17;;;;;;;;;27.60;24.80;;;;;8.91;63.37;103003.16;2061321;28;47042;-57
2021/12/18 02:48:18;;;;;;;;;26.25;22.50;;;;;8.91;63.73;102995.22;2061575;28;45519;-56
2021/12/18 02:49:18;;;;;;;;;28.25;27.50;;;;;8.89;63.40;103005.75;2062928;28;47238;-56
2021/12/18 02:50:19;;;;;;;;;31.75;27.50;;;;;8.88;63.49;103006.59;2064456;28;47551;-57
2021/12/18 02:51:20;;;;;;;;;26.50;25.75;;;;;8.89;63.60;103012.78;2064765;28;47658;-58
2021/12/18 02:52:27;;;;;;;;;29.20;25.20;;;;;8.89;63.56;103012.78;2060175;28;47625;-55
2021/12/18 02:53:28;;;;;;;;;30.00;26.00;;;;;8.89;63.35;103016.34;2062632;28;47507;-56
2021/12/18 02:54:28;;;;;;;;;27.50;22.25;;;;;8.88;63.60;103001.31;2057951;28;47117;-56
2021/12/18 02:55:29;;;;;;;;;27.25;25.25;;;;;8.88;63.67;103011.91;2064495;28;47288;-55
2021/12/18 02:56:29;;;;;;;;;25.00;24.50;;;;;8.88;63.38;103011.00;2063883;28;46073;-57
2021/12/18 02:57:31;;;;;;;;;30.75;29.00;;;;;8.88;63.72;103008.34;2059591;28;48390;-57
2021/12/18 02:58:42;;;;;;;;;32.00;28.60;;;;;8.87;63.62;103010.13;2063281;28;48399;-58
2021/12/18 02:59:48;;;;;;;;;29.20;27.00;;;;;8.86;63.51;103005.69;2059831;28;48885;-56
2021/12/18 03:00:50;;;;;;;;;33.00;32.40;;;;;8.87;63.67;103010.13;2064686;28;48563;-55
2021/12/18 03:01:50;;;;;;;;;28.40;24.80;;;;;8.85;63.48;103014.50;2062515;28;48097;-53
2021/12/18 03:02:51;;;;;;;;;31.25;26.25;;;;;8.84;63.52;103010.94;2064196;28;47277;-55
2021/12/18 03:03:54;;;;;;;;;26.75;25.50;;;;;8.82;63.39;103010.03;2062765;28;47208;-57
2021/12/18 03:04:59;;;;;;;;;23.00;23.00;;;;;8.82;63.47;103015.31;2063353;28;47813;-56
2021/12/18 03:07:21;;;;;;;;;24.80;23.60;;;;;8.81;63.48;103008.25;2060957;28;48212;-55
2021/12/18 03:08:36;;;;;;;;;25.60;25.60;;;;;8.83;63.47;103016.22;2064541;28;47391;-58
2021/12/18 03:24:32;;;;;;;;;25.40;23.60;;;;;8.92;63.62;103018.19;2063593;28;48405;-56
2021/12/18 03:25:35;;;;;;;;;20.60;19.40;;;;;8.94;63.71;103016.47;2056634;28;47485;-57
2021/12/18 03:26:36;;;;;;;;;27.80;25.40;;;;;8.95;63.75;103019.13;2060046;28;46333;-56
2021/12/18 03:27:37;;;;;;;;;26.25;24.75;;;;;8.94;63.53;103014.69;2061328;28;48477;-57
2021/12/18 03:28:38;;;;;;;;;28.40;27.60;;;;;8.95;63.69;103011.19;2064164;28;47791;-57
2021/12/18 03:29:38;;;;;;;;;30.25;28.50;;;;;8.97;63.58;103008.56;2063885;28;47459;-55
2021/12/18 03:30:38;;;;;;;;;29.00;26.00;;;;;8.97;63.72;103014.75;2063694;28;47227;-54
2021/12/18 03:31:39;;;;;;;;;28.50;28.25;;;;;8.97;63.83;103011.22;2063900;28;47583;-55
2021/12/18 03:32:40;;;;;;;;;27.00;26.75;;;;;8.98;63.84;103005.94;2061199;28;47721;-55
2021/12/18 03:33:40;;;;;;;;;28.25;27.25;;;;;8.98;63.67;103008.59;2059886;28;47783;-57
2021/12/18 03:34:41;;;;;;;;;27.75;24.00;;;;;8.99;63.65;103015.69;2063979;28;46687;-55
2021/12/18 03:35:42;;;;;;;;;31.40;27.20;;;;;8.99;63.63;103007.72;2063964;28;46975;-58
2021/12/18 03:36:42;;;;;;;;;31.00;31.00;;;;;9.01;63.76;103005.13;2063464;28;48329;-53
2021/12/18 03:37:44;;;;;;;;;24.75;24.75;;;;;9.02;63.76;103007.81;2061168;28;45388;-57
2021/12/18 03:38:44;;;;;;;;;36.00;32.00;;;;;9.03;63.85;103004.31;2063840;28;48522;-56
2021/12/18 03:39:45;;;;;;;;;24.25;24.00;;;;;9.05;63.73;103007.00;2062393;28;47573;-57
2021/12/18 03:40:46;;;;;;;;;32.00;26.80;;;;;9.05;63.56;103005.22;2063884;28;48342;-58
2021/12/18 03:41:46;;;;;;;;;29.00;25.75;;;;;9.06;63.83;103001.72;2063012;28;47457;-54
2021/12/18 03:42:48;;;;;;;;;30.25;28.50;;;;;9.06;63.73;103007.03;2062899;28;47191;-55
2021/12/18 03:43:48;;;;;;;;;26.60;26.00;;;;;9.09;63.87;103008.84;2063278;28;48037;-56
2021/12/18 03:44:49;;;;;;;;;25.75;24.50;;;;;9.09;63.76;102998.25;2064176;28;47830;-56
2021/12/18 03:45:49;;;;;;;;;29.25;25.75;;;;;9.10;63.98;103000.91;2064150;28;46004;-56
2021/12/18 03:46:50;;;;;;;;;26.75;25.00;;;;;9.12;63.99;103000.94;2062533;28;47665;-57
2021/12/18 03:47:51;;;;;;;;;26.50;25.75;;;;;9.13;64.02;102993.03;2061324;28;46949;-55
2021/12/18 03:48:52;;;;;;;;;33.80;27.40;;;;;9.15;63.83;102993.09;2058151;28;47927;-58
2021/12/18 03:49:52;;;;;;;;;27.50;27.50;;;;;9.16;63.95;102986.03;2072446;28;47231;-56
2021/12/18 03:50:53;;;;;;;;;25.50;25.25;;;;;9.16;63.96;102984.28;2067063;28;45275;-56
2021/12/18 03:51:53;;;;;;;;;32.50;30.50;;;;;9.18;63.83;102986.94;2062250;28;47936;-57
2021/12/18 03:52:55;;;;;;;;;30.00;29.00;;;;;9.20;64.09;102985.22;2061930;28;48090;-56
2021/12/18 03:53:55;;;;;;;;;27.40;27.00;;;;;9.20;63.96;102985.22;2057485;28;47495;-56
2021/12/18 03:54:56;;;;;;;;;27.25;23.50;;;;;9.20;63.90;102980.81;2063960;28;48345;-58
2021/12/18 03:55:56;;;;;;;;;29.50;29.00;;;;;9.22;63.85;102980.84;2064122;28;48367;-56
2021/12/18 03:56:57;;;;;;;;;29.00;27.25;;;;;9.23;64.06;102983.50;2062316;28;48312;-55
2021/12/18 03:57:58;;;;;;;;;27.75;23.75;;;;;9.24;64.09;102972.06;2059431;28;47135;-56
2021/12/18 03:58:58;;;;;;;;;36.00;31.00;;;;;9.27;63.93;102971.22;2062295;28;47262;-57
2021/12/18 03:59:59;;;;;;;;;28.75;24.00;;;;;9.27;63.86;102969.44;2063946;28;46925;-57
2021/12/18 04:00:59;;;;;;;;;27.50;24.75;;;;;9.28;63.89;102973.91;2064531;28;47403;-58
2021/12/18 04:02:00;;;;;;;;;25.25;24.50;;;;;9.27;63.88;102966.81;2062822;28;48189;-58
2021/12/18 04:03:00;;;;;;;;;28.00;27.50;;;;;9.30;63.96;102974.84;2059569;28;47893;-54
2021/12/18 04:04:01;;;;;;;;;32.00;31.75;;;;;9.31;63.79;102976.63;2063783;28;48035;-56
2021/12/18 04:05:02;;;;;;;;;29.50;29.00;;;;;9.32;64.07;102969.56;2064076;28;47886;-55
2021/12/18 04:06:02;;;;;;;;;31.00;28.00;;;;;9.33;63.83;102974.00;2055150;28;46774;-54
2021/12/18 04:07:03;;;;;;;;;31.50;26.00;;;;;9.33;63.83;102974.88;2045633;28;46983;-56
2021/12/18 04:08:10;;;;;;;;;28.75;27.75;;;;;9.34;63.92;102975.78;2051217;28;48227;-55
2021/12/18 04:09:11;;;;;;;;;30.60;27.80;;;;;9.34;63.95;102975.78;2060510;28;46365;-54
2021/12/18 04:10:14;;;;;;;;;32.20;28.60;;;;;9.33;63.97;102972.25;2064048;28;47804;-57
2021/12/18 04:11:15;;;;;;;;;30.00;27.20;;;;;9.35;63.88;102977.56;2064071;28;47483;-57
2021/12/18 04:12:16;;;;;;;;;26.50;26.50;;;;;9.35;64.04;102967.84;2054177;28;47578;-58
2021/12/18 04:13:16;;;;;;;;;29.50;28.50;;;;;9.36;63.89;102974.06;2055293;28;47150;-56
2021/12/18 04:14:18;;;;;;;;;29.00;28.25;;;;;9.37;63.94;102967.88;2062006;28;46942;-56
2021/12/18 04:15:18;;;;;;;;;32.80;30.40;;;;;9.36;63.90;102974.94;2064232;28;46251;-57
2021/12/18 04:16:18;;;;;;;;;27.00;26.75;;;;;9.37;64.03;102967.88;2063371;28;48102;-57
2021/12/18 04:17:19;;;;;;;;;29.75;27.00;;;;;9.39;63.80;102980.28;2062175;28;47235;-55
2021/12/18 04:18:19;;;;;;;;;28.75;27.50;;;;;9.40;63.79;102975.88;2063829;28;48067;-56
2021/12/18 04:19:20;;;;;;;;;32.00;28.50;;;;;9.40;63.88;102971.50;2063337;28;47254;-55
2021/12/18 04:20:20;;;;;;;;;27.75;25.75;;;;;9.42;63.83;102971.53;2064079;28;48083;-57
2021/12/18 04:21:20;;;;;;;;;29.75;28.25;;;;;9.42;63.85;102972.44;2063886;28;48073;-56
2021/12/18 04:22:21;;;;;;;;;24.75;24.25;;;;;9.43;63.84;102970.66;2061699;28;48386;-54
2021/12/18 04:23:22;;;;;;;;;29.00;27.40;;;;;9.43;63.98;102968.03;2058219;28;48331;-56
2021/12/18 04:24:23;;;;;;;;;31.75;30.50;;;;;9.43;64.01;102975.97;2052625;28;47733;-56
2021/12/18 04:25:24;;;;;;;;;29.25;28.00;;;;;9.43;63.80;102973.31;2054666;28;46734;-57
2021/12/18 04:26:24;;;;;;;;;30.80;26.60;;;;;9.43;64.00;102975.97;2063886;28;47422;-56
2021/12/18 04:27:25;;;;;;;;;29.00;29.00;;;;;9.44;63.95;102972.44;2062401;28;48041;-57
2021/12/18 04:28:26;;;;;;;;;28.00;24.75;;;;;9.45;63.83;102976.88;2056596;28;48266;-56
2021/12/18 04:29:26;;;;;;;;;29.75;24.75;;;;;9.45;63.91;102971.59;2062728;28;47788;-64
2021/12/18 04:30:26;;;;;;;;;34.00;31.25;;;;;9.47;63.88;102971.59;2063787;28;47740;-54
2021/12/18 04:31:27;;;;;;;;;32.50;26.50;;;;;9.47;63.97;102967.19;2064085;28;47978;-54
2021/12/18 04:32:28;;;;;;;;;27.00;27.00;;;;;9.49;63.87;102975.19;2060680;28;47388;-56
2021/12/18 04:33:28;;;;;;;;;27.25;27.25;;;;;9.48;64.07;102971.63;2058238;28;48055;-66
2021/12/18 04:34:28;;;;;;;;;12.75;10.00;;;;;9.50;63.87;102971.66;2063653;28;47323;-58
2021/12/18 04:35:30;;;;;;;;;32.50;29.00;;;;;9.50;64.17;102976.97;2063688;28;45996;-56
2021/12/18 04:36:30;;;;;;;;;29.60;28.20;;;;;9.51;63.88;102973.44;2063676;28;48224;-53
2021/12/18 04:37:31;;;;;;;;;25.75;25.75;;;;;9.52;63.79;102975.22;2059348;28;47309;-56
2021/12/18 04:38:31;;;;;;;;;30.50;27.50;;;;;9.52;63.91;102973.47;2062174;28;46785;-55
2021/12/18 04:39:32;;;;;;;;;27.00;23.75;;;;;9.53;63.75;102979.66;2064053;28;47520;-56
2021/12/18 04:40:34;;;;;;;;;34.75;32.75;;;;;9.53;63.87;102977.00;2063567;28;48148;-57
2021/12/18 04:41:47;;;;;;;;;30.40;28.20;;;;;9.52;63.81;102970.81;2063332;28;47224;-57
2021/12/18 04:42:48;;;;;;;;;31.40;27.60;;;;;9.52;64.01;102976.13;2059197;28;45332;-57
2021/12/18 04:43:49;;;;;;;;;28.75;27.75;;;;;9.54;63.86;102981.47;2063675;28;47896;-57
2021/12/18 04:44:49;;;;;;;;;29.00;27.60;;;;;9.54;63.99;102973.53;2063715;28;48230;-57
2021/12/18 04:45:50;;;;;;;;;26.75;25.00;;;;;9.54;63.92;102984.13;2063005;28;47117;-56
2021/12/18 04:46:52;;;;;;;;;30.00;25.75;;;;;9.55;64.09;102988.56;2060845;28;47113;-52
2021/12/18 04:47:53;;;;;;;;;26.00;23.40;;;;;9.56;63.93;102985.94;2060125;28;48313;-55
2021/12/18 04:48:53;;;;;;;;;26.80;26.20;;;;;9.56;64.01;102980.63;2062917;28;47636;-56
2021/12/18 04:49:55;;;;;;;;;32.75;28.75;;;;;9.58;63.87;102983.31;2061744;28;47999;-55
2021/12/18 04:50:56;;;;;;;;;28.40;25.80;;;;;9.59;63.90;102982.44;2063955;28;46943;-55
2021/12/18 04:51:56;;;;;;;;;29.25;24.25;;;;;9.59;64.01;102982.44;2061234;28;47060;-57
2021/12/18 04:52:56;;;;;;;;;27.00;24.75;;;;;9.59;64.04;102987.75;2063114;28;47217;-56
2021/12/18 04:53:57;;;;;;;;;33.25;30.50;;;;;9.60;63.91;102984.22;2063295;28;47317;-57
2021/12/18 04:54:57;;;;;;;;;31.25;29.25;;;;;9.60;63.93;102989.53;2063910;28;47027;-57
2021/12/18 04:55:58;;;;;;;;;27.25;26.00;;;;;9.61;64.00;102988.66;2061165;28;48319;-55
2021/12/18 04:56:59;;;;;;;;;31.00;30.00;;;;;9.61;63.88;102986.91;2062094;28;47175;-55
2021/12/18 04:57:59;;;;;;;;;30.50;28.75;;;;;9.63;63.87;102985.16;2059467;28;47290;-56
2021/12/18 04:59:00;;;;;;;;;33.75;30.50;;;;;9.63;63.81;102985.16;2062978;28;47888;-56
2021/12/18 05:00:01;;;;;;;;;32.25;32.00;;;;;9.64;63.82;102983.41;2063596;28;48125;-56
2021/12/18 05:01:02;;;;;;;;;30.20;28.80;;;;;9.66;63.84;102987.91;2054867;28;48088;-56
2021/12/18 05:02:02;;;;;;;;;32.25;30.00;;;;;9.66;63.83;102992.31;2045420;28;47054;-55
2021/12/18 05:03:06;;;;;;;;;28.75;28.75;;;;;9.67;63.82;102996.75;2046793;28;47985;-55
2021/12/18 05:04:10;;;;;;;;;26.40;24.20;;;;;9.67;63.53;102997.63;2051805;28;46999;-55
2021/12/18 05:05:13;;;;;;;;;26.80;26.20;;;;;9.67;63.87;102994.09;2063059;28;47673;-56
2021/12/18 05:06:17;;;;;;;;;30.80;28.00;;;;;9.67;63.93;102994.97;2063455;28;47095;-57
2021/12/18 05:07:17;;;;;;;;;31.60;29.00;;;;;9.68;63.89;102993.22;2053792;28;48810;-57
2021/12/18 05:08:18;;;;;;;;;28.75;26.75;;;;;9.69;63.68;102995.00;2056355;28;47273;-55
2021/12/18 05:09:18;;;;;;;;;34.50;29.75;;;;;9.69;63.92;102997.66;2062249;28;46809;-57
2021/12/18 05:10:19;;;;;;;;;30.50;27.50;;;;;9.69;63.54;102992.34;2063542;28;48451;-57
2021/12/18 05:11:19;;;;;;;;;30.50;28.00;;;;;9.68;63.63;102994.13;2062967;28;48147;-57
2021/12/18 05:12:20;;;;;;;;;32.00;31.25;;;;;9.68;63.62;102994.13;2060707;28;47126;-54
2021/12/18 05:13:20;;;;;;;;;27.75;26.00;;;;;9.69;63.67;102992.34;2063394;28;47559;-56
2021/12/18 05:14:21;;;;;;;;;30.50;26.00;;;;;9.70;63.76;102999.44;2063347;28;47173;-57
2021/12/18 05:15:22;;;;;;;;;29.60;27.20;;;;;9.70;63.66;102991.50;2063584;28;48350;-58
2021/12/18 05:16:22;;;;;;;;;32.50;29.50;;;;;9.71;63.65;102999.47;2063595;28;47523;-55
2021/12/18 05:17:23;;;;;;;;;26.25;24.00;;;;;9.70;63.58;102996.78;2061792;28;47480;-55
2021/12/18 05:18:23;;;;;;;;;32.75;31.25;;;;;9.71;63.63;103002.13;2057656;28;47015;-57
2021/12/18 05:19:23;;;;;;;;;27.25;25.25;;;;;9.71;63.75;103002.13;2061690;28;47388;-54
2021/12/18 05:20:24;;;;;;;;;24.75;24.75;;;;;9.72;63.57;103003.00;2063566;28;47893;-55
2021/12/18 05:21:24;;;;;;;;;28.25;26.75;;;;;9.71;63.66;103002.13;2062136;28;48053;-56
2021/12/18 05:22:25;;;;;;;;;31.50;29.25;;;;;9.70;63.56;103000.34;2059401;28;46731;-57
2021/12/18 05:23:25;;;;;;;;;23.75;21.75;;;;;9.70;63.31;102997.69;2061832;28;48267;-57
2021/12/18 05:24:25;;;;;;;;;27.75;27.50;;;;;9.72;63.72;103001.25;2061841;28;48025;-58
2021/12/18 05:25:26;;;;;;;;;31.00;27.25;;;;;9.72;63.68;103001.25;2063811;28;48410;-54
2021/12/18 05:26:26;;;;;;;;;29.25;25.50;;;;;9.73;63.47;103002.16;2063348;28;47810;-56
2021/12/18 05:27:27;;;;;;;;;26.50;25.25;;;;;9.73;63.56;103003.03;2060096;28;48430;-56
2021/12/18 05:28:27;;;;;;;;;27.25;26.00;;;;;9.74;63.48;103004.81;2059394;28;47422;-58
2021/12/18 05:29:28;;;;;;;;;32.50;29.75;;;;;9.76;63.46;102998.66;2056670;28;46071;-58